Adams Mills, Ohio
Current Conditions -  °F | °C
As of 6:53 AM on Thursday 18 Dec 2014 (Local Time) from KZZV Reporting Station
Overcast Overcast  
Wind Chill: -6°   Ceiling: 2300
Heat Index: -3°   Visibility: 10mi
Dew Point: -8°   Wind: 5mph
Humidity: 69%   Direction: 300°WNW
Pressure: 30.23"   Gusts: NA
Location:  40.1482°N, 82.0354°W
Report Text: KZZV 181153Z AUTO 30004KT 10SM OVC023 M03/M08 A3023 RMK AO2 SLP246 T10281078 11028 21033 58000
Loading
Personal Weather Stations






























Interactive Weather Map New forecast layout! Learn more

10-Day Weather Forecast

Advertisements
Track Severe Weather on mobile